DLH5TP EDDF-EDDL
Flight info
| Callsign | DLH5TP |
|---|---|
| Flight time | 0h 34m |
| Altitude | 24000 |
| Route | MARUN3W MARUN Y152 ARPEG Z850 ADEMI T854 DOMUX DOMUX1A |
| Aircraft | A320/M-SDE2E3FGIJ1LORWXYZ/HB1 |
Departure
| Time | 2026-04-16 14:12 |
|---|---|
| Airport | Frankfurt Main Airport (EDDF) |
Arrival
| Time | 2026-04-16 14:46 |
|---|---|
| Airport | Düsseldorf Airport (EDDL) |
| Time | Latitude | Longitude | Altitude | Speed | Heading |
|---|---|---|---|---|---|
| 2026-04-16 13:53 | 50.04480 | 8.56538 | 356 ft | 0 kts | 165° |
| 2026-04-16 14:04 | 50.04487 | 8.56535 | 362 ft | 4 kts | 166° |
| 2026-04-16 14:04 | 50.04513 | 8.56524 | 363 ft | 4 kts | 155° |
| 2026-04-16 14:04 | 50.04531 | 8.56500 | 359 ft | 4 kts | 118° |
| 2026-04-16 14:04 | 50.04545 | 8.56466 | 360 ft | 4 kts | 139° |
| 2026-04-16 14:05 | 50.04566 | 8.56452 | 362 ft | 4 kts | 198° |
| 2026-04-16 14:05 | 50.04570 | 8.56454 | 362 ft | 0 kts | 204° |
| 2026-04-16 14:07 | 50.04569 | 8.56453 | 362 ft | 3 kts | 204° |
| 2026-04-16 14:07 | 50.04517 | 8.56386 | 359 ft | 14 kts | 245° |
| 2026-04-16 14:07 | 50.04474 | 8.56208 | 358 ft | 19 kts | 249° |
| 2026-04-16 14:07 | 50.04422 | 8.56039 | 358 ft | 16 kts | 214° |
| 2026-04-16 14:08 | 50.04314 | 8.56074 | 356 ft | 17 kts | 152° |
| 2026-04-16 14:08 | 50.04267 | 8.56227 | 359 ft | 16 kts | 153° |
| 2026-04-16 14:08 | 50.04163 | 8.56287 | 359 ft | 16 kts | 152° |
| 2026-04-16 14:08 | 50.04168 | 8.56449 | 356 ft | 16 kts | 70° |
| 2026-04-16 14:09 | 50.04204 | 8.56600 | 360 ft | 14 kts | 69° |
| 2026-04-16 14:09 | 50.04235 | 8.56732 | 360 ft | 16 kts | 69° |
| 2026-04-16 14:09 | 50.04285 | 8.56937 | 364 ft | 25 kts | 72° |
| 2026-04-16 14:09 | 50.04348 | 8.57204 | 363 ft | 27 kts | 69° |
| 2026-04-16 14:10 | 50.04409 | 8.57461 | 361 ft | 21 kts | 70° |
| 2026-04-16 14:10 | 50.04414 | 8.57620 | 365 ft | 11 kts | 120° |
| 2026-04-16 14:10 | 50.04343 | 8.57681 | 363 ft | 15 kts | 160° |
| 2026-04-16 14:10 | 50.04275 | 8.57683 | 362 ft | 10 kts | 223° |
| 2026-04-16 14:11 | 50.04247 | 8.57586 | 364 ft | 10 kts | 249° |
| 2026-04-16 14:11 | 50.04169 | 8.57267 | 367 ft | 67 kts | 250° |
| 2026-04-16 14:11 | 50.03921 | 8.56227 | 359 ft | 134 kts | 250° |
| 2026-04-16 14:11 | 50.03541 | 8.54653 | 591 ft | 165 kts | 249° |
| 2026-04-16 14:12 | 50.03133 | 8.52954 | 1290 ft | 170 kts | 249° |
| 2026-04-16 14:12 | 50.02707 | 8.51190 | 1930 ft | 184 kts | 249° |
| 2026-04-16 14:12 | 50.01984 | 8.49447 | 2427 ft | 199 kts | 224° |
| 2026-04-16 14:12 | 50.00803 | 8.48284 | 3085 ft | 205 kts | 201° |
| 2026-04-16 14:13 | 49.99398 | 8.47847 | 3804 ft | 208 kts | 189° |
| 2026-04-16 14:13 | 49.97957 | 8.47532 | 4526 ft | 210 kts | 190° |
| 2026-04-16 14:13 | 49.96502 | 8.47206 | 5209 ft | 212 kts | 191° |
| 2026-04-16 14:13 | 49.95054 | 8.46625 | 5730 ft | 224 kts | 199° |
| 2026-04-16 14:14 | 49.93486 | 8.45894 | 6259 ft | 243 kts | 199° |
| 2026-04-16 14:14 | 49.91952 | 8.44776 | 7092 ft | 246 kts | 221° |
| 2026-04-16 14:14 | 49.90914 | 8.42690 | 7978 ft | 247 kts | 248° |
| 2026-04-16 14:14 | 49.90632 | 8.40072 | 8889 ft | 250 kts | 275° |
| 2026-04-16 14:15 | 49.91196 | 8.37518 | 9822 ft | 257 kts | 303° |
| 2026-04-16 14:15 | 49.92531 | 8.35657 | 10737 ft | 265 kts | 331° |
| 2026-04-16 14:15 | 49.94257 | 8.34480 | 11373 ft | 282 kts | 335° |
| 2026-04-16 14:15 | 49.96127 | 8.33273 | 11764 ft | 306 kts | 335° |
| 2026-04-16 14:16 | 49.98160 | 8.31972 | 12313 ft | 322 kts | 335° |
| 2026-04-16 14:16 | 50.00245 | 8.30640 | 13121 ft | 326 kts | 335° |
| 2026-04-16 14:16 | 50.02377 | 8.29390 | 13974 ft | 331 kts | 341° |
| 2026-04-16 14:16 | 50.04671 | 8.28811 | 14712 ft | 338 kts | 354° |
| 2026-04-16 14:17 | 50.07043 | 8.29071 | 15426 ft | 346 kts | 7° |
| 2026-04-16 14:17 | 50.09375 | 8.30129 | 16123 ft | 353 kts | 15° |
| 2026-04-16 14:17 | 50.11722 | 8.31363 | 16827 ft | 357 kts | 14° |
| 2026-04-16 14:17 | 50.14083 | 8.32573 | 17522 ft | 359 kts | 10° |
| 2026-04-16 14:18 | 50.16549 | 8.32981 | 18184 ft | 355 kts | 352° |
| 2026-04-16 14:18 | 50.19015 | 8.32634 | 18832 ft | 357 kts | 350° |
| 2026-04-16 14:18 | 50.20689 | 8.32374 | 19247 ft | 359 kts | 350° |
| 2026-04-16 14:18 | 50.23178 | 8.31970 | 19870 ft | 361 kts | 350° |
| 2026-04-16 14:19 | 50.25693 | 8.31556 | 20529 ft | 364 kts | 350° |
| 2026-04-16 14:19 | 50.28222 | 8.31142 | 21172 ft | 367 kts | 350° |
| 2026-04-16 14:19 | 50.30783 | 8.30772 | 21803 ft | 370 kts | 351° |
| 2026-04-16 14:19 | 50.33362 | 8.30496 | 22402 ft | 374 kts | 352° |
| 2026-04-16 14:20 | 50.35963 | 8.30270 | 22991 ft | 377 kts | 352° |
| 2026-04-16 14:20 | 50.38593 | 8.30065 | 23570 ft | 379 kts | 352° |
| 2026-04-16 14:20 | 50.41234 | 8.29858 | 24047 ft | 382 kts | 352° |
| 2026-04-16 14:20 | 50.43896 | 8.29637 | 24189 ft | 382 kts | 352° |
| 2026-04-16 14:21 | 50.46500 | 8.29414 | 24223 ft | 366 kts | 352° |
| 2026-04-16 14:21 | 50.48997 | 8.29191 | 24227 ft | 355 kts | 351° |
| 2026-04-16 14:21 | 50.51459 | 8.28958 | 24229 ft | 353 kts | 351° |
| 2026-04-16 14:21 | 50.53879 | 8.28720 | 24228 ft | 352 kts | 351° |
| 2026-04-16 14:22 | 50.56320 | 8.28478 | 24228 ft | 352 kts | 351° |
| 2026-04-16 14:22 | 50.58770 | 8.28237 | 24244 ft | 352 kts | 351° |
| 2026-04-16 14:22 | 50.61214 | 8.27998 | 24230 ft | 352 kts | 351° |
| 2026-04-16 14:22 | 50.63661 | 8.27763 | 24244 ft | 352 kts | 351° |
| 2026-04-16 14:23 | 50.66100 | 8.27531 | 24245 ft | 352 kts | 351° |
| 2026-04-16 14:23 | 50.68542 | 8.27297 | 24245 ft | 351 kts | 351° |
| 2026-04-16 14:23 | 50.70983 | 8.27062 | 24244 ft | 352 kts | 351° |
| 2026-04-16 14:23 | 50.73427 | 8.26828 | 24243 ft | 352 kts | 351° |
| 2026-04-16 14:24 | 50.75867 | 8.26595 | 24242 ft | 351 kts | 351° |
| 2026-04-16 14:24 | 50.78314 | 8.26362 | 24241 ft | 351 kts | 351° |
| 2026-04-16 14:24 | 50.80751 | 8.26128 | 24242 ft | 352 kts | 351° |
| 2026-04-16 14:24 | 50.83197 | 8.25889 | 24242 ft | 351 kts | 351° |
| 2026-04-16 14:25 | 50.85638 | 8.25650 | 24238 ft | 351 kts | 351° |
| 2026-04-16 14:25 | 50.88079 | 8.25411 | 24237 ft | 352 kts | 351° |
| 2026-04-16 14:25 | 50.90490 | 8.25178 | 24235 ft | 351 kts | 351° |
| 2026-04-16 14:25 | 50.92932 | 8.24945 | 24233 ft | 351 kts | 351° |
| 2026-04-16 14:26 | 50.95370 | 8.24713 | 24232 ft | 351 kts | 351° |
| 2026-04-16 14:26 | 50.97817 | 8.24477 | 24231 ft | 351 kts | 351° |
| 2026-04-16 14:26 | 51.00256 | 8.24239 | 24230 ft | 351 kts | 351° |
| 2026-04-16 14:26 | 51.02696 | 8.24006 | 24229 ft | 352 kts | 351° |
| 2026-04-16 14:27 | 51.05141 | 8.23818 | 24249 ft | 352 kts | 352° |
| 2026-04-16 14:27 | 51.07580 | 8.23609 | 24244 ft | 350 kts | 348° |
| 2026-04-16 14:27 | 51.09939 | 8.22832 | 24239 ft | 343 kts | 337° |
| 2026-04-16 14:27 | 51.12115 | 8.21366 | 24236 ft | 337 kts | 327° |
| 2026-04-16 14:28 | 51.14145 | 8.19549 | 24076 ft | 332 kts | 326° |
| 2026-04-16 14:28 | 51.16146 | 8.17757 | 23851 ft | 328 kts | 326° |
| 2026-04-16 14:28 | 51.18133 | 8.15979 | 23579 ft | 326 kts | 326° |
| 2026-04-16 14:28 | 51.20094 | 8.14170 | 23302 ft | 323 kts | 321° |
| 2026-04-16 14:29 | 51.21685 | 8.11734 | 23027 ft | 314 kts | 303° |
| 2026-04-16 14:29 | 51.22645 | 8.08642 | 22751 ft | 310 kts | 285° |
| 2026-04-16 14:29 | 51.23131 | 8.05385 | 22479 ft | 293 kts | 283° |
| 2026-04-16 14:29 | 51.23580 | 8.02298 | 22215 ft | 283 kts | 283° |
| 2026-04-16 14:30 | 51.24025 | 7.99236 | 21957 ft | 283 kts | 283° |
| 2026-04-16 14:30 | 51.24471 | 7.96174 | 21701 ft | 282 kts | 283° |
| 2026-04-16 14:30 | 51.24912 | 7.93120 | 21417 ft | 282 kts | 283° |
| 2026-04-16 14:30 | 51.25352 | 7.90084 | 21145 ft | 281 kts | 283° |
| 2026-04-16 14:31 | 51.25785 | 7.87092 | 20917 ft | 280 kts | 283° |
| 2026-04-16 14:31 | 51.26225 | 7.84028 | 20718 ft | 279 kts | 283° |
| 2026-04-16 14:31 | 51.26650 | 7.81046 | 20549 ft | 279 kts | 283° |
| 2026-04-16 14:31 | 51.27077 | 7.78025 | 20398 ft | 279 kts | 283° |
| 2026-04-16 14:32 | 51.27504 | 7.75000 | 20321 ft | 279 kts | 283° |
| 2026-04-16 14:32 | 51.27931 | 7.71978 | 20281 ft | 278 kts | 283° |
| 2026-04-16 14:32 | 51.28356 | 7.68966 | 20234 ft | 278 kts | 283° |
| 2026-04-16 14:32 | 51.28781 | 7.65949 | 20197 ft | 278 kts | 283° |
| 2026-04-16 14:33 | 51.29205 | 7.62942 | 20159 ft | 278 kts | 283° |
| 2026-04-16 14:33 | 51.29630 | 7.59926 | 20143 ft | 278 kts | 283° |
| 2026-04-16 14:33 | 51.30054 | 7.56921 | 20129 ft | 278 kts | 283° |
| 2026-04-16 14:33 | 51.30480 | 7.53906 | 20130 ft | 278 kts | 283° |
| 2026-04-16 14:34 | 51.30901 | 7.50903 | 20117 ft | 277 kts | 283° |
| 2026-04-16 14:34 | 51.31323 | 7.47889 | 20108 ft | 277 kts | 283° |
| 2026-04-16 14:34 | 51.31745 | 7.44881 | 20109 ft | 277 kts | 283° |
| 2026-04-16 14:34 | 51.32163 | 7.41880 | 20089 ft | 277 kts | 283° |
| 2026-04-16 14:35 | 51.32582 | 7.38876 | 20086 ft | 277 kts | 283° |
| 2026-04-16 14:35 | 51.32999 | 7.35874 | 19805 ft | 276 kts | 283° |
| 2026-04-16 14:35 | 51.33413 | 7.32885 | 19444 ft | 275 kts | 283° |
| 2026-04-16 14:35 | 51.33826 | 7.29897 | 19151 ft | 274 kts | 283° |
| 2026-04-16 14:36 | 51.34437 | 7.27032 | 18876 ft | 272 kts | 300° |
| 2026-04-16 14:36 | 51.35715 | 7.24841 | 18308 ft | 272 kts | 319° |
| 2026-04-16 14:36 | 51.37271 | 7.23094 | 17598 ft | 274 kts | 322° |
| 2026-04-16 14:36 | 51.38840 | 7.21415 | 16929 ft | 273 kts | 322° |
| 2026-04-16 14:37 | 51.40426 | 7.19720 | 16288 ft | 272 kts | 322° |
| 2026-04-16 14:37 | 51.41996 | 7.18037 | 15667 ft | 271 kts | 322° |
| 2026-04-16 14:37 | 51.43560 | 7.16356 | 15057 ft | 270 kts | 322° |
| 2026-04-16 14:37 | 51.45091 | 7.14703 | 14499 ft | 268 kts | 322° |
| 2026-04-16 14:38 | 51.46634 | 7.13038 | 13901 ft | 267 kts | 323° |
| 2026-04-16 14:38 | 51.48186 | 7.11401 | 13270 ft | 266 kts | 323° |
| 2026-04-16 14:38 | 51.49735 | 7.09783 | 12668 ft | 264 kts | 323° |
| 2026-04-16 14:38 | 51.51273 | 7.08182 | 12081 ft | 263 kts | 323° |
| 2026-04-16 14:39 | 51.52803 | 7.06593 | 11489 ft | 261 kts | 323° |
| 2026-04-16 14:39 | 51.54146 | 7.04721 | 10950 ft | 253 kts | 301° |
| 2026-04-16 14:39 | 51.54742 | 7.02150 | 10416 ft | 245 kts | 272° |
| 2026-04-16 14:39 | 51.54436 | 6.99511 | 9854 ft | 243 kts | 243° |
| 2026-04-16 14:40 | 51.53505 | 6.97252 | 9221 ft | 243 kts | 234° |
| 2026-04-16 14:40 | 51.52480 | 6.95099 | 8628 ft | 242 kts | 233° |
| 2026-04-16 14:40 | 51.51449 | 6.92954 | 8067 ft | 241 kts | 233° |
| 2026-04-16 14:40 | 51.50369 | 6.90915 | 7507 ft | 240 kts | 220° |
| 2026-04-16 14:41 | 51.48859 | 6.89828 | 6996 ft | 242 kts | 189° |
| 2026-04-16 14:41 | 51.47193 | 6.90170 | 6468 ft | 247 kts | 159° |
| 2026-04-16 14:41 | 51.45753 | 6.91669 | 6015 ft | 244 kts | 145° |
| 2026-04-16 14:41 | 51.44443 | 6.93364 | 5584 ft | 240 kts | 143° |
| 2026-04-16 14:42 | 51.43178 | 6.95033 | 5110 ft | 238 kts | 143° |
| 2026-04-16 14:42 | 51.41784 | 6.96364 | 4655 ft | 232 kts | 163° |
| 2026-04-16 14:42 | 51.40233 | 6.96764 | 4376 ft | 217 kts | 185° |
| 2026-04-16 14:42 | 51.38784 | 6.96328 | 3971 ft | 205 kts | 202° |
| 2026-04-16 14:43 | 51.37597 | 6.95219 | 3510 ft | 199 kts | 224° |
| 2026-04-16 14:43 | 51.36687 | 6.93591 | 3161 ft | 190 kts | 233° |
| 2026-04-16 14:43 | 51.35929 | 6.91975 | 2962 ft | 172 kts | 234° |
| 2026-04-16 14:43 | 51.35221 | 6.90507 | 2773 ft | 162 kts | 234° |
| 2026-04-16 14:44 | 51.34555 | 6.89075 | 2443 ft | 159 kts | 234° |
| 2026-04-16 14:44 | 51.33891 | 6.87661 | 1960 ft | 160 kts | 233° |
| 2026-04-16 14:44 | 51.33216 | 6.86253 | 1526 ft | 157 kts | 234° |
| 2026-04-16 14:44 | 51.32550 | 6.84855 | 1201 ft | 155 kts | 233° |
| 2026-04-16 14:45 | 51.31912 | 6.83532 | 936 ft | 145 kts | 231° |
| 2026-04-16 14:45 | 51.31300 | 6.82237 | 736 ft | 144 kts | 233° |
| 2026-04-16 14:45 | 51.30711 | 6.80989 | 578 ft | 139 kts | 233° |
| 2026-04-16 14:45 | 51.30122 | 6.79752 | 409 ft | 139 kts | 233° |
| 2026-04-16 14:46 | 51.29548 | 6.78538 | 225 ft | 133 kts | 233° |
| 2026-04-16 14:46 | 51.29019 | 6.77429 | 126 ft | 115 kts | 233° |
| 2026-04-16 14:46 | 51.28646 | 6.76637 | 126 ft | 65 kts | 232° |
| 2026-04-16 14:46 | 51.28417 | 6.76156 | 125 ft | 34 kts | 232° |
| 2026-04-16 14:47 | 51.28277 | 6.76042 | 128 ft | 21 kts | 179° |
| 2026-04-16 14:47 | 51.28193 | 6.76090 | 126 ft | 10 kts | 136° |
| 2026-04-16 14:47 | 51.28199 | 6.76176 | 124 ft | 8 kts | 64° |
| 2026-04-16 14:47 | 51.28182 | 6.76256 | 124 ft | 10 kts | 139° |
| 2026-04-16 14:48 | 51.28137 | 6.76334 | 126 ft | 9 kts | 119° |
| 2026-04-16 14:48 | 51.28099 | 6.76392 | 126 ft | 7 kts | 173° |
| 2026-04-16 14:48 | 51.28056 | 6.76375 | 123 ft | 5 kts | 197° |
| 2026-04-16 14:48 | 51.28043 | 6.76369 | 125 ft | 0 kts | 197° |